KMDH/MDH METAR and TAF weather

Enter ICAO airport designator
Station Type Date Time Source
KMDH METAR 2020/04/05 21:09 UTC NOAA

KMDH 052109Z VRB03KT 9SM BKN015 OVC033 13/08 A3012 RMK AO2 T01280083


Station Type Date Time Source
KMDH Decoded METAR 2020/04/05 21:09 UTC NOAA

SOUTHERN ILLINOIS AIRPORT, IL, United States (KMDH) 37-47N 089-15W 130M
Apr 05, 2020 - 05:09 PM EDT / 2020.04.05 2109 UTC
Wind: Variable at 3 MPH (3 KT):0
Visibility: 9 mile(s):0
Sky conditions: overcast
Temperature: 55.0 F (12.8 C)
Dew Point: 46.9 F (8.3 C)
Relative Humidity: 74%
Pressure (altimeter): 30.12 in. Hg (1019 hPa)
ob: KMDH 052109Z VRB03KT 9SM BKN015 OVC033 13/08 A3012 RMK AO2 T01280083
cycle: 21

Station Type Date Time Source
KMDH TAF UTC NOAA

Error!

Example: see airport list